Time;durP1;ratioP1;P1;durP2;ratioP2;P2;SDS_P1;SDS_P2;PMS_P1;PMS_P2;Temp;Humidity;BMP_temperature;BMP_pressure;BME280_temperature;BME280_humidity;BME280_pressure;Samples;Min_cycle;Max_cycle;Signal;HPM_P1;HPM_P2
2023/04/10 00:02:19;;;;;;;5.47;4.30;;;6.90;99.90;;;;;;5051173;28;20167;-68
2023/04/10 00:04:44;;;;;;;5.00;4.10;;;6.80;99.90;;;;;;5052328;28;20668;-69
2023/04/10 00:07:10;;;;;;;9.23;3.53;;;6.80;99.90;;;;;;5052123;28;20241;-68
2023/04/10 00:09:36;;;;;;;5.40;4.40;;;6.80;99.90;;;;;;5052453;28;20159;-67
2023/04/10 00:12:01;;;;;;;4.00;3.60;;;6.80;99.90;;;;;;5052211;28;20241;-68
2023/04/10 00:14:27;;;;;;;6.43;4.27;;;6.80;99.90;;;;;;5052060;28;20209;-69
2023/04/10 00:16:52;;;;;;;5.53;4.50;;;6.70;99.90;;;;;;5051938;28;20195;-68
2023/04/10 00:19:18;;;;;;;10.00;5.90;;;6.70;99.90;;;;;;5052223;28;20163;-67
2023/04/10 00:21:43;;;;;;;5.50;4.83;;;6.70;99.90;;;;;;5052201;28;20178;-68
2023/04/10 00:24:09;;;;;;;5.30;4.73;;;6.70;99.90;;;;;;5051958;28;20189;-69
2023/04/10 00:26:35;;;;;;;7.63;4.90;;;6.70;99.90;;;;;;5052002;28;20170;-68
2023/04/10 00:29:02;;;;;;;6.50;5.10;;;6.70;99.90;;;;;;5051755;28;20178;-67
2023/04/10 00:31:27;;;;;;;8.13;5.77;;;6.70;99.90;;;;;;5051993;28;20408;-68
2023/04/10 00:33:53;;;;;;;7.23;5.13;;;6.70;99.90;;;;;;5051900;28;20425;-67
2023/04/10 00:36:18;;;;;;;11.53;6.30;;;6.70;99.90;;;;;;5051899;28;20201;-67
2023/04/10 00:38:44;;;;;;;12.80;6.70;;;6.70;99.90;;;;;;5051907;28;20167;-69
2023/04/10 00:41:09;;;;;;;8.23;5.47;;;6.60;99.90;;;;;;5051989;28;20174;-68
2023/04/10 00:43:35;;;;;;;9.50;5.87;;;6.70;99.90;;;;;;5050577;28;20678;-68
2023/04/10 00:46:01;;;;;;;8.07;6.43;;;6.70;99.90;;;;;;5051747;28;20158;-67
2023/04/10 00:48:26;;;;;;;12.70;6.63;;;6.70;99.90;;;;;;5051600;28;20170;-68
2023/04/10 00:50:52;;;;;;;9.63;6.80;;;6.70;99.90;;;;;;5051827;28;20199;-68
2023/04/10 00:53:17;;;;;;;9.37;6.27;;;6.70;99.90;;;;;;5051783;28;20683;-68
2023/04/10 00:55:44;;;;;;;9.77;6.73;;;6.70;99.90;;;;;;5051686;28;20203;-69
2023/04/10 00:58:13;;;;;;;7.90;5.70;;;6.70;99.90;;;;;;5051517;28;20648;-67
2023/04/10 01:00:40;;;;;;;9.87;5.80;;;6.80;99.90;;;;;;5051895;28;20406;-68
2023/04/10 01:03:06;;;;;;;8.33;6.23;;;6.80;99.90;;;;;;5051740;28;20401;-67
2023/04/10 01:05:42;;;;;;;8.33;6.13;;;6.70;99.90;;;;;;5053624;28;20429;-69
2023/04/10 01:08:21;;;;;;;9.60;6.27;;;6.70;99.90;;;;;;5055458;28;20441;-68
2023/04/10 01:11:04;;;;;;;10.67;7.27;;;6.70;99.90;;;;;;5055725;28;20405;-68
2023/04/10 01:13:38;;;;;;;9.10;6.63;;;6.70;99.90;;;;;;5055501;28;20432;-68
2023/04/10 01:16:17;;;;;;;9.23;6.20;;;6.70;99.90;;;;;;5055485;28;20467;-67
2023/04/10 01:19:14;;;;;;;11.17;7.03;;;6.70;99.90;;;;;;5055310;28;20401;-69
2023/04/10 01:21:41;;;;;;;10.30;6.90;;;6.70;99.90;;;;;;5046790;28;20462;-67
2023/04/10 01:24:30;;;;;;;10.10;6.47;;;6.70;99.90;;;;;;5055271;28;20929;-69
2023/04/10 01:27:10;;;;;;;8.17;6.30;;;6.60;99.90;;;;;;5054986;28;20413;-68
2023/04/10 01:29:39;;;;;;;7.93;6.83;;;6.40;99.90;;;;;;5054040;28;20409;-68
2023/04/10 01:32:13;;;;;;;6.73;5.23;;;6.40;99.90;;;;;;5055272;28;20401;-68
2023/04/10 01:34:45;;;;;;;9.27;7.17;;;6.40;99.90;;;;;;5055388;28;20424;-68
2023/04/10 01:37:30;;;;;;;9.40;6.67;;;6.50;99.90;;;;;;5054832;28;20479;-68
2023/04/10 01:40:02;;;;;;;12.50;7.07;;;6.50;99.90;;;;;;5055086;28;20829;-67
2023/04/10 01:42:31;;;;;;;9.97;6.50;;;6.50;99.90;;;;;;5053920;28;20401;-68
2023/04/10 01:44:58;;;;;;;11.10;6.30;;;6.60;99.90;;;;;;5055059;28;20436;-69
2023/04/10 01:47:25;;;;;;;10.33;6.50;;;6.50;99.90;;;;;;5053421;28;20460;-68
2023/04/10 01:49:52;;;;;;;9.90;6.87;;;6.50;99.90;;;;;;5054874;28;20437;-68
2023/04/10 01:52:20;;;;;;;8.57;6.17;;;6.50;99.90;;;;;;5054761;28;20401;-69
2023/04/10 01:54:47;;;;;;;8.40;6.13;;;6.60;99.90;;;;;;5054775;28;20508;-68
2023/04/10 01:57:15;;;;;;;14.50;7.80;;;6.60;99.90;;;;;;5054360;28;20540;-67
2023/04/10 01:59:41;;;;;;;8.83;7.03;;;6.60;99.90;;;;;;5054856;28;20401;-67
2023/04/10 02:02:06;;;;;;;10.73;7.97;;;6.50;99.90;;;;;;5054642;28;20409;-67
2023/04/10 02:04:32;;;;;;;12.30;7.87;;;6.40;99.90;;;;;;5053253;28;20421;-68
2023/04/10 02:07:01;;;;;;;13.83;6.70;;;6.40;99.90;;;;;;5054265;28;20194;-68
2023/04/10 02:10:01;;;;;;;10.70;6.80;;;6.40;99.90;;;;;;5054544;28;20406;-67
2023/04/10 02:12:45;;;;;;;10.80;7.53;;;6.40;99.90;;;;;;5054625;28;20428;-69
2023/04/10 02:15:11;;;;;;;12.23;7.57;;;6.40;99.90;;;;;;5054537;28;20418;-69
2023/04/10 02:17:38;;;;;;;10.00;6.80;;;6.40;99.90;;;;;;5052788;28;20393;-68
2023/04/10 02:20:06;;;;;;;9.83;6.80;;;6.40;99.90;;;;;;5054367;28;20439;-68
2023/04/10 02:22:32;;;;;;;12.07;7.40;;;6.40;99.90;;;;;;5054290;28;20405;-69
2023/04/10 02:24:58;;;;;;;11.27;8.10;;;6.50;99.90;;;;;;5054269;28;20548;-68
2023/04/10 02:27:31;;;;;;;14.30;7.30;;;6.40;99.90;;;;;;5053797;28;20416;-68
2023/04/10 02:29:56;;;;;;;10.17;6.70;;;6.40;99.90;;;;;;5054260;28;20397;-69
2023/04/10 02:32:22;;;;;;;10.50;7.30;;;6.30;99.90;;;;;;5054210;28;20412;-68
2023/04/10 02:34:48;;;;;;;16.23;7.40;;;6.30;99.90;;;;;;5054013;28;20193;-69
2023/04/10 02:37:13;;;;;;;11.40;7.20;;;6.20;99.90;;;;;;5053731;28;20962;-68
2023/04/10 02:39:39;;;;;;;15.20;7.87;;;6.20;99.90;;;;;;5055349;28;20166;-68
2023/04/10 02:42:04;;;;;;;8.60;5.70;;;6.10;99.90;;;;;;5055270;28;20194;-68
2023/04/10 02:44:30;;;;;;;10.47;7.40;;;6.10;99.90;;;;;;5055074;28;20246;-68
2023/04/10 02:46:55;;;;;;;11.80;7.73;;;6.10;99.90;;;;;;5054984;28;20644;-69
2023/04/10 02:49:21;;;;;;;9.80;7.00;;;6.10;99.90;;;;;;5055339;28;20183;-68
2023/04/10 02:51:46;;;;;;;12.77;9.30;;;6.10;99.90;;;;;;5054281;28;20171;-68
2023/04/10 02:54:12;;;;;;;13.93;7.80;;;6.00;99.90;;;;;;5054347;28;20525;-67
2023/04/10 02:56:37;;;;;;;9.80;6.80;;;6.00;99.90;;;;;;5053599;28;20197;-69
2023/04/10 02:59:03;;;;;;;8.67;6.00;;;5.90;99.90;;;;;;5053504;28;20175;-69
2023/04/10 03:01:29;;;;;;;10.30;7.10;;;5.90;99.90;;;;;;5054057;28;20240;-68
2023/04/10 03:03:55;;;;;;;16.97;7.17;;;5.90;99.90;;;;;;5053481;28;20194;-68
2023/04/10 03:06:22;;;;;;;10.73;7.07;;;5.80;99.90;;;;;;5053530;28;20413;-68
2023/04/10 03:08:47;;;;;;;12.37;7.17;;;5.80;99.90;;;;;;5053286;28;20220;-69
2023/04/10 03:11:13;;;;;;;12.57;7.53;;;5.80;99.90;;;;;;5053444;28;20970;-68
2023/04/10 03:13:38;;;;;;;8.50;6.50;;;5.70;99.90;;;;;;5053198;28;20210;-68
2023/04/10 03:16:04;;;;;;;9.77;7.40;;;5.80;99.90;;;;;;5053357;28;20256;-69
2023/04/10 03:18:30;;;;;;;11.80;6.80;;;5.70;99.90;;;;;;5053003;28;20199;-68
2023/04/10 03:20:56;;;;;;;9.97;6.80;;;5.70;99.90;;;;;;5053358;28;20163;-69
2023/04/10 03:23:21;;;;;;;11.30;6.47;;;5.70;99.90;;;;;;5053154;28;20956;-68
2023/04/10 03:25:52;;;;;;;7.70;6.57;;;5.70;99.90;;;;;;5053208;28;20167;-68
2023/04/10 03:28:18;;;;;;;10.33;6.50;;;5.70;99.90;;;;;;5052560;28;20167;-69
2023/04/10 03:30:43;;;;;;;8.90;6.33;;;5.70;99.90;;;;;;5051878;28;20417;-69
2023/04/10 03:33:09;;;;;;;11.27;7.37;;;5.70;99.90;;;;;;5053503;28;20197;-68
2023/04/10 03:35:34;;;;;;;10.10;7.03;;;5.60;99.90;;;;;;5054273;28;20195;-68
2023/04/10 03:38:00;;;;;;;9.00;6.50;;;5.60;99.90;;;;;;5054363;28;20174;-68
2023/04/10 03:40:25;;;;;;;9.40;7.20;;;5.60;99.90;;;;;;5052829;28;20535;-68
2023/04/10 03:42:51;;;;;;;11.10;7.60;;;5.60;99.90;;;;;;5052780;28;20171;-67
2023/04/10 03:45:16;;;;;;;13.80;7.23;;;5.60;99.90;;;;;;5052678;28;20201;-68
2023/04/10 03:47:42;;;;;;;10.00;6.43;;;5.50;99.90;;;;;;5052411;28;20582;-68
2023/04/10 03:50:08;;;;;;;11.13;7.00;;;5.50;99.90;;;;;;5052805;28;20171;-67
2023/04/10 03:52:33;;;;;;;11.30;7.07;;;5.50;99.90;;;;;;5052678;28;20181;-67
2023/04/10 03:54:59;;;;;;;10.47;7.30;;;5.50;99.90;;;;;;5052539;28;20918;-68
2023/04/10 03:57:24;;;;;;;11.03;7.27;;;5.60;99.90;;;;;;5052240;28;20612;-68
2023/04/10 03:59:50;;;;;;;11.97;7.40;;;5.50;99.90;;;;;;5052533;28;20194;-68
2023/04/10 04:02:16;;;;;;;11.87;7.00;;;5.50;99.90;;;;;;5052330;28;20196;-67
2023/04/10 04:04:41;;;;;;;11.93;7.47;;;5.40;99.90;;;;;;5052362;28;20233;-68
2023/04/10 04:07:07;;;;;;;9.67;6.43;;;5.40;99.90;;;;;;5052098;28;20213;-68
2023/04/10 04:09:33;;;;;;;10.33;7.17;;;5.40;99.90;;;;;;5052284;28;20171;-68
2023/04/10 04:11:58;;;;;;;12.40;8.30;;;5.30;99.90;;;;;;5052372;28;20409;-68
2023/04/10 04:14:24;;;;;;;12.20;7.00;;;5.30;99.90;;;;;;5052131;28;20572;-67
2023/04/10 04:16:49;;;;;;;10.87;6.20;;;5.30;99.90;;;;;;5051920;28;20199;-69
2023/04/10 04:19:16;;;;;;;18.70;8.20;;;5.20;99.90;;;;;;5052120;28;20205;-69
2023/04/10 04:21:42;;;;;;;8.27;5.80;;;5.20;99.90;;;;;;5052165;28;20488;-69
2023/04/10 04:24:07;;;;;;;10.50;7.53;;;5.20;99.90;;;;;;5050820;28;20200;-69
2023/04/10 04:26:33;;;;;;;15.70;8.13;;;5.20;99.90;;;;;;5052034;28;20517;-68
2023/04/10 04:28:58;;;;;;;13.40;7.63;;;5.20;99.90;;;;;;5051380;28;20521;-68
2023/04/10 04:31:24;;;;;;;10.27;6.53;;;5.20;99.90;;;;;;5052061;28;20174;-69
2023/04/10 04:33:50;;;;;;;9.97;6.70;;;5.10;99.90;;;;;;5051918;28;20216;-69
2023/04/10 04:36:15;;;;;;;8.37;5.73;;;5.10;99.90;;;;;;5051952;28;20197;-69
2023/04/10 04:38:41;;;;;;;13.57;8.50;;;5.10;99.90;;;;;;5051478;28;20223;-69
2023/04/10 04:41:07;;;;;;;10.83;6.60;;;5.20;99.90;;;;;;5051369;28;20625;-70
2023/04/10 04:43:32;;;;;;;7.50;6.20;;;5.20;99.90;;;;;;5051894;28;20294;-68
2023/04/10 04:45:58;;;;;;;9.60;7.00;;;5.20;99.90;;;;;;5052018;28;20167;-70
2023/04/10 04:48:24;;;;;;;9.90;6.40;;;5.30;99.90;;;;;;5051677;28;20167;-69
2023/04/10 04:50:49;;;;;;;8.83;6.70;;;5.30;99.90;;;;;;5051905;28;20171;-68
2023/04/10 04:53:15;;;;;;;11.30;7.90;;;5.20;99.90;;;;;;5051893;28;20167;-68
2023/04/10 04:55:40;;;;;;;8.77;6.60;;;5.10;99.90;;;;;;5051814;28;20631;-69
2023/04/10 04:58:06;;;;;;;11.97;7.20;;;5.10;99.90;;;;;;5051506;28;20159;-69
2023/04/10 05:00:31;;;;;;;8.70;6.67;;;5.20;99.90;;;;;;5051736;28;20170;-68
2023/04/10 05:02:57;;;;;;;8.40;5.63;;;5.20;99.90;;;;;;5051794;28;20171;-69
2023/04/10 05:05:22;;;;;;;9.27;6.83;;;5.20;99.90;;;;;;5051825;28;20186;-69
2023/04/10 05:07:48;;;;;;;7.77;5.77;;;5.20;99.90;;;;;;5051367;28;20584;-69
2023/04/10 05:10:14;;;;;;;10.40;7.13;;;5.30;99.90;;;;;;5051676;28;20167;-69
2023/04/10 05:12:40;;;;;;;9.97;6.77;;;5.40;99.90;;;;;;5051534;28;20175;-68
2023/04/10 05:15:06;;;;;;;10.17;6.30;;;5.40;99.90;;;;;;5051479;28;20428;-69
2023/04/10 05:17:32;;;;;;;9.67;6.43;;;5.50;99.90;;;;;;5051143;28;20457;-68
2023/04/10 05:19:57;;;;;;;7.20;5.40;;;5.50;99.90;;;;;;5050392;28;20417;-67
2023/04/10 05:22:23;;;;;;;11.20;5.93;;;5.60;99.90;;;;;;5051535;28;20167;-68
2023/04/10 05:24:48;;;;;;;10.70;6.50;;;5.70;99.90;;;;;;5051351;28;20179;-68
2023/04/10 05:27:14;;;;;;;10.00;6.73;;;5.80;99.90;;;;;;5051241;28;20176;-69
2023/04/10 05:29:39;;;;;;;7.77;5.60;;;5.90;99.90;;;;;;5051579;28;20182;-68
2023/04/10 05:32:05;;;;;;;7.53;6.13;;;6.00;99.90;;;;;;5051500;28;20168;-69
2023/04/10 05:34:30;;;;;;;10.67;7.00;;;6.20;99.90;;;;;;5050130;28;20191;-68
2023/04/10 05:36:56;;;;;;;9.30;6.47;;;6.40;99.90;;;;;;5051143;28;20187;-68
2023/04/10 05:39:21;;;;;;;10.93;6.77;;;6.60;99.90;;;;;;5051458;28;20163;-69
2023/04/10 05:41:47;;;;;;;12.00;7.50;;;6.90;99.90;;;;;;5051592;28;20167;-69
2023/04/10 05:44:12;;;;;;;10.97;7.60;;;7.40;99.90;;;;;;5052227;28;20222;-69
2023/04/10 05:46:38;;;;;;;11.90;8.00;;;7.80;99.90;;;;;;5052420;28;20524;-69
2023/04/10 05:49:03;;;;;;;12.37;7.87;;;8.30;99.90;;;;;;5051465;28;20166;-68
2023/04/10 05:51:29;;;;;;;9.00;6.50;;;8.80;99.90;;;;;;5053014;28;20632;-68
2023/04/10 05:53:55;;;;;;;12.07;7.00;;;9.10;99.90;;;;;;5054822;28;20191;-67
2023/04/10 05:56:20;;;;;;;8.10;6.03;;;9.30;99.90;;;;;;5054159;28;20460;-69
2023/04/10 05:58:46;;;;;;;9.63;6.97;;;9.30;99.90;;;;;;5055478;28;20166;-69
2023/04/10 06:01:12;;;;;;;8.90;7.20;;;9.40;99.90;;;;;;5053969;28;20209;-68
2023/04/10 06:03:38;;;;;;;7.33;6.60;;;9.60;99.90;;;;;;5055645;28;20302;-69
2023/04/10 06:06:06;;;;;;;9.27;6.70;;;9.80;99.90;;;;;;5055618;28;20891;-69
2023/04/10 06:08:33;;;;;;;6.80;6.10;;;10.00;99.90;;;;;;5055389;28;20186;-69
2023/04/10 06:10:59;;;;;;;9.27;6.40;;;10.10;99.90;;;;;;5055536;28;21040;-69
2023/04/10 06:13:26;;;;;;;12.97;7.47;;;10.20;99.90;;;;;;5054419;28;20422;-68
2023/04/10 06:15:51;;;;;;;10.07;7.40;;;10.60;99.90;;;;;;5054439;28;20706;-69
2023/04/10 06:18:17;;;;;;;6.67;5.97;;;10.70;99.90;;;;;;5054375;28;20409;-69
2023/04/10 06:20:43;;;;;;;10.07;6.10;;;11.00;99.90;;;;;;5054814;28;20255;-69
2023/04/10 06:23:08;;;;;;;7.80;6.73;;;11.20;99.90;;;;;;5054971;28;20181;-68
2023/04/10 06:25:34;;;;;;;8.90;7.60;;;11.60;99.90;;;;;;5054276;28;20540;-69
2023/04/10 06:27:59;;;;;;;8.50;6.70;;;12.10;99.90;;;;;;5054734;28;20660;-67
2023/04/10 06:30:25;;;;;;;8.07;6.10;;;12.40;99.90;;;;;;5054407;28;20166;-69
2023/04/10 06:32:50;;;;;;;10.47;7.20;;;12.70;99.90;;;;;;5054186;28;20589;-69
2023/04/10 06:35:16;;;;;;;6.70;5.30;;;12.90;99.90;;;;;;5054019;28;20307;-68
2023/04/10 06:37:42;;;;;;;9.00;6.50;;;13.10;99.90;;;;;;5053846;28;20163;-69
2023/04/10 06:40:09;;;;;;;7.10;5.40;;;13.20;99.90;;;;;;5054105;28;20678;-68
2023/04/10 06:42:35;;;;;;;7.63;6.13;;;13.70;99.90;;;;;;5054189;28;20401;-69
2023/04/10 06:45:01;;;;;;;6.13;5.53;;;14.20;99.90;;;;;;5054214;28;20820;-68
2023/04/10 06:47:27;;;;;;;7.50;6.47;;;14.60;98.80;;;;;;5052322;28;20175;-68
2023/04/10 06:49:53;;;;;;;8.17;5.57;;;15.00;97.30;;;;;;5053785;28;20894;-68
2023/04/10 06:52:19;;;;;;;6.03;5.43;;;15.10;95.00;;;;;;5053771;28;20163;-69
2023/04/10 06:54:44;;;;;;;6.47;5.37;;;15.60;94.00;;;;;;5053860;28;20198;-68
2023/04/10 06:57:10;;;;;;;8.23;6.30;;;16.00;92.80;;;;;;5053560;28;20448;-69
2023/04/10 06:59:35;;;;;;;8.13;5.80;;;16.20;90.50;;;;;;5053669;28;20242;-69
2023/04/10 07:02:02;;;;;;;6.87;5.40;;;16.60;87.50;;;;;;5053348;28;20159;-68
2023/04/10 07:04:28;;;;;;;9.70;6.00;;;16.30;82.90;;;;;;5053148;28;20187;-68
2023/04/10 07:06:53;;;;;;;8.90;6.50;;;16.70;82.90;;;;;;5053383;28;20406;-69
2023/04/10 07:09:19;;;;;;;7.70;6.07;;;17.10;80.70;;;;;;5053660;28;20178;-68
2023/04/10 07:11:44;;;;;;;7.03;4.90;;;17.40;76.50;;;;;;5052242;28;20167;-69
2023/04/10 07:14:10;;;;;;;7.63;5.30;;;17.50;74.70;;;;;;5053380;28;20285;-68
2023/04/10 07:16:36;;;;;;;10.23;6.60;;;17.40;73.10;;;;;;5053235;28;20217;-68
2023/04/10 07:19:01;;;;;;;7.07;6.00;;;17.30;73.60;;;;;;5053010;28;20171;-69
2023/04/10 07:21:27;;;;;;;8.00;5.47;;;17.20;72.00;;;;;;5053206;28;20228;-68
2023/04/10 07:23:53;;;;;;;5.13;4.50;;;17.40;71.10;;;;;;5053117;28;20197;-70
2023/04/10 07:26:19;;;;;;;6.60;5.53;;;17.60;68.60;;;;;;5053201;28;20167;-69
2023/04/10 07:28:44;;;;;;;7.83;6.03;;;17.30;67.90;;;;;;5052772;28;21010;-70
2023/04/10 07:31:10;;;;;;;5.37;4.83;;;17.40;70.30;;;;;;5053271;28;20413;-69
2023/04/10 07:33:37;;;;;;;7.87;5.73;;;17.60;70.30;;;;;;5053250;28;20186;-70
2023/04/10 07:36:04;;;;;;;7.60;6.00;;;17.60;67.50;;;;;;5051925;28;20449;-69
2023/04/10 07:38:30;;;;;;;7.33;6.27;;;17.50;67.30;;;;;;5052908;28;20819;-69
2023/04/10 07:40:57;;;;;;;6.63;5.90;;;17.50;67.00;;;;;;5052969;28;20496;-68
2023/04/10 07:43:22;;;;;;;6.20;5.60;;;17.00;67.40;;;;;;5052809;28;20397;-68
2023/04/10 07:45:48;;;;;;;6.27;5.67;;;17.10;68.50;;;;;;5052722;28;20401;-68
2023/04/10 07:48:13;;;;;;;6.90;6.17;;;16.90;66.00;;;;;;5052459;28;20269;-69
2023/04/10 07:50:39;;;;;;;7.23;5.63;;;17.00;66.60;;;;;;5053099;28;20174;-69
2023/04/10 07:53:06;;;;;;;6.00;5.37;;;17.20;66.60;;;;;;5052891;28;20608;-69
2023/04/10 07:55:40;;;;;;;5.90;5.30;;;17.50;69.10;;;;;;5051708;28;20594;-70
2023/04/10 07:58:06;;;;;;;5.73;5.10;;;18.00;66.40;;;;;;5051801;28;20458;-70
2023/04/10 08:00:32;;;;;;;6.63;5.60;;;18.40;63.80;;;;;;5052329;28;20401;-69
2023/04/10 08:02:58;;;;;;;10.80;4.67;;;18.80;60.90;;;;;;5052254;28;20171;-70
2023/04/10 08:05:24;;;;;;;6.57;5.30;;;18.80;59.70;;;;;;5051847;28;20417;-72
2023/04/10 08:07:49;;;;;;;8.13;5.47;;;18.90;59.40;;;;;;5052036;28;20221;-69
2023/04/10 08:10:15;;;;;;;6.10;5.13;;;18.90;58.80;;;;;;5052325;28;20393;-72
2023/04/10 08:12:40;;;;;;;6.87;4.70;;;19.10;58.70;;;;;;5052574;28;20182;-73
2023/04/10 08:15:06;;;;;;;5.50;5.00;;;19.20;58.30;;;;;;5052514;28;20221;-71
2023/04/10 08:17:32;;;;;;;5.37;4.87;;;19.50;58.20;;;;;;5052679;28;20703;-70
2023/04/10 08:19:57;;;;;;;6.50;5.63;;;19.90;57.70;;;;;;5052319;28;20163;-71
2023/04/10 08:22:23;;;;;;;7.57;5.80;;;20.20;57.40;;;;;;5052203;28;20532;-72
2023/04/10 08:24:48;;;;;;;5.23;4.73;;;20.20;56.10;;;;;;5051998;28;20187;-71
2023/04/10 08:27:15;;;;;;;5.30;4.70;;;20.00;55.10;;;;;;5051867;28;20576;-71
2023/04/10 08:29:41;;;;;;;5.40;4.90;;;19.70;55.30;;;;;;5052043;28;20261;-71
2023/04/10 08:32:06;;;;;;;11.00;5.43;;;19.50;55.90;;;;;;5052050;28;20429;-71
2023/04/10 08:34:32;;;;;;;4.80;3.97;;;19.40;55.00;;;;;;5052125;28;20179;-72
2023/04/10 08:36:57;;;;;;;5.60;4.90;;;19.30;55.30;;;;;;5051373;28;20194;-71
2023/04/10 08:39:23;;;;;;;8.60;5.10;;;19.40;56.10;;;;;;5051988;28;20163;-71
2023/04/10 08:41:49;;;;;;;7.37;5.10;;;19.70;55.80;;;;;;5052015;28;20173;-72
2023/04/10 08:44:15;;;;;;;6.20;5.23;;;19.80;54.40;;;;;;5051974;28;20254;-71
2023/04/10 08:46:44;;;;;;;5.60;4.93;;;20.20;54.80;;;;;;5051886;28;20163;-71
2023/04/10 08:49:30;;;;;;;5.20;4.70;;;20.30;53.10;;;;;;5051618;28;20415;-71
2023/04/10 08:51:57;;;;;;;5.40;4.80;;;20.00;52.70;;;;;;5047752;28;20421;-71
2023/04/10 08:54:32;;;;;;;4.57;4.17;;;20.00;52.50;;;;;;5051623;28;20532;-71
2023/04/10 08:57:00;;;;;;;5.10;4.60;;;20.10;53.50;;;;;;5051376;28;20977;-71
2023/04/10 08:59:30;;;;;;;6.30;4.50;;;20.20;54.30;;;;;;5052060;28;20962;-71
2023/04/10 09:01:57;;;;;;;6.20;5.27;;;19.90;52.20;;;;;;5051509;28;20486;-71
2023/04/10 09:04:24;;;;;;;4.90;4.47;;;19.80;52.80;;;;;;5051605;28;20429;-71
2023/04/10 09:06:50;;;;;;;10.83;4.33;;;19.60;53.20;;;;;;5051523;28;20485;-71
2023/04/10 09:09:16;;;;;;;5.47;4.60;;;19.70;52.50;;;;;;5051596;28;20902;-71
2023/04/10 09:11:50;;;;;;;5.23;4.53;;;19.80;52.70;;;;;;5051508;28;20411;-71
2023/04/10 09:14:23;;;;;;;4.97;4.30;;;19.80;52.90;;;;;;5051501;28;20206;-71
2023/04/10 09:16:50;;;;;;;4.77;4.17;;;19.90;52.10;;;;;;5051417;28;20479;-71
2023/04/10 09:19:30;;;;;;;5.53;4.60;;;20.00;52.80;;;;;;5051529;28;20804;-71
2023/04/10 09:21:55;;;;;;;6.53;5.10;;;20.60;53.20;;;;;;5051555;28;20405;-71
2023/04/10 09:24:22;;;;;;;3.63;3.30;;;21.70;51.10;;;;;;5051414;28;20422;-71
2023/04/10 09:26:48;;;;;;;4.87;4.20;;;22.30;49.30;;;;;;5053882;28;20163;-71
2023/04/10 09:29:15;;;;;;;4.67;4.07;;;23.00;48.10;;;;;;5055137;28;20436;-71
2023/04/10 09:31:42;;;;;;;5.47;4.67;;;23.10;46.50;;;;;;5055346;28;20159;-71
2023/04/10 09:34:09;;;;;;;5.07;4.43;;;22.80;46.90;;;;;;5055253;28;20436;-71
2023/04/10 09:36:40;;;;;;;5.10;4.70;;;22.80;47.70;;;;;;5055148;28;20445;-71
2023/04/10 09:39:06;;;;;;;5.23;4.73;;;23.10;46.80;;;;;;5054947;28;20393;-71
2023/04/10 09:41:32;;;;;;;4.73;3.90;;;23.40;46.30;;;;;;5053944;28;20412;-71
2023/04/10 09:44:09;;;;;;;5.00;4.00;;;23.50;46.40;;;;;;5055009;28;20413;-71
2023/04/10 09:46:34;;;;;;;4.20;3.80;;;23.50;45.50;;;;;;5055084;28;20676;-72
2023/04/10 09:49:03;;;;;;;7.70;4.23;;;23.40;45.30;;;;;;5054740;28;20496;-72
2023/04/10 09:51:31;;;;;;;5.20;4.53;;;23.20;44.80;;;;;;5054974;28;20163;-71
2023/04/10 09:53:56;;;;;;;4.30;3.80;;;23.20;45.60;;;;;;5053321;28;20437;-71
2023/04/10 09:56:25;;;;;;;4.50;4.10;;;23.00;46.40;;;;;;5054862;28;20441;-71
2023/04/10 09:58:51;;;;;;;4.30;3.90;;;23.20;45.30;;;;;;5053433;28;20171;-71
2023/04/10 10:01:17;;;;;;;3.50;3.20;;;23.60;45.60;;;;;;5054774;28;20485;-71
2023/04/10 10:03:43;;;;;;;4.80;4.10;;;24.50;45.40;;;;;;5054637;28;20504;-71
2023/04/10 10:06:10;;;;;;;4.97;4.30;;;25.10;44.80;;;;;;5054641;28;20405;-71
2023/04/10 10:08:36;;;;;;;5.37;4.50;;;25.10;44.20;;;;;;5054539;28;20167;-71
2023/04/10 10:11:05;;;;;;;4.20;3.87;;;24.90;44.20;;;;;;5054531;28;20989;-71
2023/04/10 10:13:40;;;;;;;4.97;4.47;;;24.50;43.60;;;;;;5054615;28;20573;-71
2023/04/10 10:16:06;;;;;;;3.97;3.60;;;24.80;44.20;;;;;;5054426;28;20456;-71
2023/04/10 10:18:46;;;;;;;4.33;3.93;;;26.10;43.60;;;;;;5054261;28;20535;-71
2023/04/10 10:21:12;;;;;;;4.33;3.93;;;27.10;42.40;;;;;;5054126;28;20395;-71
2023/04/10 10:23:41;;;;;;;5.80;4.77;;;27.50;40.90;;;;;;5052991;28;20949;-71
2023/04/10 10:26:08;;;;;;;5.30;4.03;;;28.00;39.60;;;;;;5054286;28;20749;-71
2023/04/10 10:28:36;;;;;;;4.17;3.77;;;27.80;38.80;;;;;;5054060;28;20413;-71
2023/04/10 10:31:05;;;;;;;3.50;3.20;;;27.80;38.50;;;;;;5054238;28;20819;-71
2023/04/10 10:33:34;;;;;;;3.90;3.57;;;27.20;39.80;;;;;;5054171;28;20409;-70
2023/04/10 10:36:01;;;;;;;4.53;4.00;;;27.00;38.80;;;;;;5053052;28;21005;-71
2023/04/10 10:38:27;;;;;;;5.60;3.97;;;26.30;39.40;;;;;;5051314;28;20416;-70
2023/04/10 10:41:12;;;;;;;3.30;3.10;;;26.10;39.70;;;;;;5054011;28;20401;-70
2023/04/10 10:43:55;;;;;;;4.77;4.37;;;25.80;40.30;;;;;;5052728;28;20437;-70
2023/04/10 10:46:32;;;;;;;4.90;4.40;;;25.60;41.10;;;;;;5053922;28;20777;-70
2023/04/10 10:48:58;;;;;;;4.13;3.73;;;25.40;41.70;;;;;;5053693;28;20933;-71
2023/04/10 10:51:48;;;;;;;3.63;3.33;;;25.00;40.00;;;;;;5053824;28;20413;-71
2023/04/10 10:54:33;;;;;;;4.70;3.77;;;24.50;41.30;;;;;;5053718;28;20421;-71
2023/04/10 10:56:59;;;;;;;4.67;4.27;;;24.10;41.30;;;;;;5053374;28;20444;-71
2023/04/10 10:59:47;;;;;;;4.20;3.80;;;23.30;42.20;;;;;;5053671;28;20406;-71
2023/04/10 11:02:17;;;;;;;4.03;3.73;;;23.10;43.90;;;;;;5053704;28;20398;-71
2023/04/10 11:04:44;;;;;;;4.40;3.60;;;22.80;43.10;;;;;;5053542;28;20409;-71
2023/04/10 11:07:10;;;;;;;3.10;2.80;;;22.70;43.40;;;;;;5052982;28;20967;-70
2023/04/10 11:09:52;;;;;;;3.10;2.77;;;22.60;42.20;;;;;;5053838;28;20472;-70
2023/04/10 11:12:23;;;;;;;5.23;3.80;;;22.30;43.80;;;;;;5053261;28;20812;-70
2023/04/10 11:15:03;;;;;;;3.37;3.07;;;21.90;43.70;;;;;;5053313;28;20413;-70
2023/04/10 11:17:50;;;;;;;3.10;2.80;;;21.70;43.60;;;;;;5051629;28;20456;-70
2023/04/10 11:20:26;;;;;;;3.50;2.70;;;21.40;44.10;;;;;;5052986;28;20397;-70
2023/04/10 11:23:11;;;;;;;3.50;3.07;;;20.90;43.80;;;;;;5053120;28;20476;-70
2023/04/10 11:25:50;;;;;;;3.00;2.70;;;20.60;43.60;;;;;;5053100;28;20425;-69
2023/04/10 11:28:31;;;;;;;4.27;2.87;;;20.40;45.50;;;;;;5053047;28;20393;-70
2023/04/10 11:31:17;;;;;;;4.47;2.90;;;20.40;45.60;;;;;;5052546;28;20452;-70
2023/04/10 11:33:43;;;;;;;3.80;3.03;;;20.50;45.20;;;;;;5051010;28;20428;-71
2023/04/10 11:36:12;;;;;;;2.87;2.67;;;20.30;44.90;;;;;;5051650;28;20453;-70
2023/04/10 11:38:38;;;;;;;2.80;2.60;;;20.20;46.40;;;;;;5052605;28;20425;-70
2023/04/10 11:41:05;;;;;;;2.63;2.43;;;19.90;45.10;;;;;;5052857;28;20444;-70
2023/04/10 11:43:32;;;;;;;3.13;2.83;;;19.90;47.10;;;;;;5052770;28;20162;-70
2023/04/10 11:45:59;;;;;;;4.83;3.03;;;19.70;46.50;;;;;;5051476;28;20448;-70
2023/04/10 11:48:27;;;;;;;3.57;2.90;;;19.60;47.40;;;;;;5052050;28;20405;-70
2023/04/10 11:50:52;;;;;;;3.27;2.67;;;19.70;47.50;;;;;;5052698;28;20406;-70
2023/04/10 11:53:20;;;;;;;3.50;2.37;;;19.90;46.90;;;;;;5052464;28;20417;-70
2023/04/10 11:55:46;;;;;;;3.57;3.00;;;20.10;47.60;;;;;;5052456;28;20195;-70
2023/04/10 11:58:25;;;;;;;2.30;2.10;;;20.50;48.50;;;;;;5052199;28;20503;-70
2023/04/10 12:01:02;;;;;;;6.47;2.53;;;21.10;48.00;;;;;;5052619;28;20166;-70
2023/04/10 12:03:37;;;;;;;3.07;2.77;;;21.60;43.70;;;;;;5052445;28;20397;-70
2023/04/10 12:06:06;;;;;;;1.90;1.80;;;21.90;43.30;;;;;;5052386;28;20424;-70
2023/04/10 12:08:37;;;;;;;2.30;2.10;;;22.10;42.30;;;;;;5050649;28;20930;-71
2023/04/10 12:11:03;;;;;;;1.87;1.73;;;22.20;40.70;;;;;;5052203;28;20452;-70
2023/04/10 12:13:29;;;;;;;2.60;2.40;;;22.50;39.70;;;;;;5052104;28;20941;-70
2023/04/10 12:15:59;;;;;;;2.17;1.97;;;22.70;39.20;;;;;;5052219;28;20190;-70
2023/04/10 12:18:25;;;;;;;1.93;1.83;;;22.80;38.40;;;;;;5052048;28;20398;-70
2023/04/10 12:20:55;;;;;;;2.33;2.13;;;22.80;37.50;;;;;;5052044;28;20492;-71
2023/04/10 12:23:21;;;;;;;2.07;1.87;;;22.70;37.80;;;;;;5051967;28;20402;-70
2023/04/10 12:25:47;;;;;;;4.87;2.30;;;22.70;38.20;;;;;;5050706;28;20933;-70
2023/04/10 12:28:20;;;;;;;1.97;1.80;;;22.70;38.30;;;;;;5051792;28;20409;-70
2023/04/10 12:30:52;;;;;;;2.30;1.80;;;22.50;38.20;;;;;;5052088;28;20163;-70
2023/04/10 12:33:24;;;;;;;2.43;1.80;;;22.70;38.20;;;;;;5051946;28;20476;-70
2023/04/10 12:35:50;;;;;;;2.87;2.50;;;22.70;37.40;;;;;;5051848;28;20460;-70
2023/04/10 12:38:34;;;;;;;2.43;2.23;;;22.70;37.80;;;;;;5051760;28;20405;-71
2023/04/10 12:41:00;;;;;;;2.47;1.90;;;23.00;39.30;;;;;;5051972;28;20398;-71
2023/04/10 12:43:30;;;;;;;4.37;1.77;;;24.00;38.30;;;;;;5050468;28;20492;-71
2023/04/10 12:45:56;;;;;;;2.87;2.17;;;24.80;37.30;;;;;;5051712;28;20411;-71
2023/04/10 12:48:22;;;;;;;2.67;2.10;;;25.60;37.50;;;;;;5051543;28;20397;-71
2023/04/10 12:50:48;;;;;;;2.40;1.90;;;26.10;36.60;;;;;;5051779;28;20663;-71
2023/04/10 12:53:14;;;;;;;4.10;2.00;;;27.10;35.40;;;;;;5051865;28;20401;-71